Time;durP1;ratioP1;P1;durP2;ratioP2;P2;SDS_P1;SDS_P2;PMS_P1;PMS_P2;Temp;Humidity;BMP_temperature;BMP_pressure;BME280_temperature;BME280_humidity;BME280_pressure;Samples;Min_cycle;Max_cycle;Signal;HPM_P1;HPM_P2
2023/08/03 00:00:03;;;;;;;5.25;2.10;;;19.40;99.90;;;;;;4971604;28;20391;-75
2023/08/03 00:02:33;;;;;;;6.00;2.50;;;19.40;99.90;;;;;;4988986;28;20398;-74
2023/08/03 00:04:59;;;;;;;4.78;1.80;;;19.40;99.90;;;;;;4990949;28;20382;-75
2023/08/03 00:07:24;;;;;;;4.20;1.80;;;19.30;99.90;;;;;;4979674;28;20953;-75
2023/08/03 00:09:50;;;;;;;5.17;1.90;;;19.20;99.90;;;;;;4971259;28;20388;-75
2023/08/03 00:12:17;;;;;;;6.00;1.60;;;19.30;99.90;;;;;;4971107;28;20396;-75
2023/08/03 00:14:43;;;;;;;7.30;2.35;;;19.30;99.90;;;;;;4971338;28;20407;-75
2023/08/03 00:17:08;;;;;;;6.30;1.93;;;19.30;99.90;;;;;;4978900;28;20402;-74
2023/08/03 00:19:34;;;;;;;5.18;1.95;;;19.30;99.90;;;;;;4987347;28;20415;-75
2023/08/03 00:21:59;;;;;;;6.13;2.20;;;19.30;99.90;;;;;;4970879;28;20432;-75
2023/08/03 00:24:25;;;;;;;6.90;1.93;;;19.30;99.90;;;;;;4971242;28;20899;-75
2023/08/03 00:26:50;;;;;;;4.30;1.80;;;19.20;99.90;;;;;;4971171;28;20400;-74
2023/08/03 00:29:16;;;;;;;5.03;2.27;;;19.30;99.90;;;;;;4969723;28;20400;-76
2023/08/03 00:31:42;;;;;;;4.85;2.13;;;19.20;99.90;;;;;;4989729;28;20802;-76
2023/08/03 00:34:07;;;;;;;3.50;1.70;;;19.20;99.90;;;;;;4979138;28;20429;-76
2023/08/03 00:36:33;;;;;;;9.30;2.47;;;19.20;99.90;;;;;;4990694;28;20426;-75
2023/08/03 00:38:58;;;;;;;4.70;1.80;;;19.10;99.90;;;;;;4990353;28;20410;-76
2023/08/03 00:41:24;;;;;;;7.57;2.00;;;19.20;99.90;;;;;;4990100;28;20409;-75
2023/08/03 00:43:49;;;;;;;10.07;2.50;;;19.20;99.90;;;;;;4988008;28;20443;-75
2023/08/03 00:46:15;;;;;;;5.00;1.80;;;19.10;99.90;;;;;;4983143;28;20437;-75
2023/08/03 00:48:41;;;;;;;7.00;1.67;;;19.20;99.90;;;;;;4994112;28;20392;-75
2023/08/03 00:51:07;;;;;;;8.33;2.40;;;19.10;99.90;;;;;;4993963;28;20401;-75
2023/08/03 00:53:32;;;;;;;7.03;1.80;;;19.10;99.90;;;;;;4994078;28;20929;-75
2023/08/03 00:55:58;;;;;;;5.88;1.50;;;19.10;99.90;;;;;;4984768;28;20443;-75
2023/08/03 00:58:23;;;;;;;6.90;1.80;;;19.10;99.90;;;;;;4973446;28;20480;-75
2023/08/03 01:00:49;;;;;;;5.85;1.60;;;19.10;99.90;;;;;;4981566;28;20770;-75
2023/08/03 01:03:14;;;;;;;7.70;3.00;;;19.10;99.90;;;;;;4992160;28;20956;-75
2023/08/03 01:05:40;;;;;;;5.70;1.60;;;19.10;99.90;;;;;;4994095;28;20425;-75
2023/08/03 01:08:06;;;;;;;6.38;1.70;;;19.10;99.90;;;;;;4993875;28;21045;-75
2023/08/03 01:10:32;;;;;;;5.22;1.63;;;19.10;99.90;;;;;;4988120;28;20396;-75
2023/08/03 01:12:57;;;;;;;4.53;1.83;;;19.10;99.90;;;;;;4974185;28;20388;-75
2023/08/03 01:15:23;;;;;;;4.60;1.30;;;19.00;99.90;;;;;;4974240;28;20407;-75
2023/08/03 01:17:49;;;;;;;8.27;1.70;;;19.00;99.90;;;;;;4990574;28;20433;-75
2023/08/03 01:20:18;;;;;;;8.18;2.15;;;18.90;99.90;;;;;;4992371;28;20426;-74
2023/08/03 01:22:43;;;;;;;7.68;2.00;;;19.00;99.90;;;;;;4992303;28;20901;-75
2023/08/03 01:25:10;;;;;;;7.50;1.83;;;19.00;99.90;;;;;;4993575;28;20390;-75
2023/08/03 01:27:35;;;;;;;8.68;2.30;;;19.00;99.90;;;;;;4979717;28;20487;-75
2023/08/03 01:30:01;;;;;;;7.03;2.08;;;19.00;99.90;;;;;;4988206;28;20485;-75
2023/08/03 01:32:27;;;;;;;6.93;1.50;;;18.90;99.90;;;;;;4991529;28;20437;-75
2023/08/03 01:34:52;;;;;;;6.10;1.90;;;18.90;99.90;;;;;;4974036;28;20466;-75
2023/08/03 01:37:18;;;;;;;3.58;1.80;;;19.00;99.90;;;;;;4974072;28;20411;-75
2023/08/03 01:39:45;;;;;;;4.95;1.63;;;19.00;99.90;;;;;;4984756;28;20533;-76
2023/08/03 01:42:11;;;;;;;6.27;1.77;;;19.00;99.90;;;;;;4990131;28;20423;-75
2023/08/03 01:44:38;;;;;;;4.95;1.70;;;19.00;99.90;;;;;;4973796;28;20879;-75
2023/08/03 01:47:04;;;;;;;4.40;1.50;;;19.00;99.90;;;;;;4973912;28;20764;-75
2023/08/03 01:49:31;;;;;;;6.57;1.70;;;19.00;99.90;;;;;;4974768;28;20402;-74
2023/08/03 01:51:56;;;;;;;5.57;1.80;;;19.00;99.90;;;;;;4973648;28;20396;-74
2023/08/03 01:54:22;;;;;;;5.93;2.10;;;19.00;99.90;;;;;;4973650;28;20915;-74
2023/08/03 01:56:47;;;;;;;5.63;1.13;;;19.00;99.90;;;;;;4973504;28;20384;-75
2023/08/03 01:59:13;;;;;;;7.20;1.90;;;19.00;99.90;;;;;;4974050;28;20396;-75
2023/08/03 02:01:39;;;;;;;6.70;1.80;;;19.00;99.90;;;;;;4983153;28;20812;-75
2023/08/03 02:04:04;;;;;;;4.30;1.60;;;19.00;99.90;;;;;;4973717;28;20400;-75
2023/08/03 02:06:30;;;;;;;4.32;1.48;;;18.90;99.90;;;;;;4972198;28;20529;-75
2023/08/03 02:08:55;;;;;;;4.53;1.40;;;19.00;99.90;;;;;;4973458;28;20396;-75
2023/08/03 02:11:21;;;;;;;5.43;1.70;;;18.90;99.90;;;;;;4978811;28;20806;-75
2023/08/03 02:13:47;;;;;;;5.47;1.60;;;18.90;99.90;;;;;;4993192;28;20446;-75
2023/08/03 02:16:12;;;;;;;4.28;1.50;;;18.90;99.90;;;;;;4980041;28;20801;-75
2023/08/03 02:18:41;;;;;;;4.40;1.40;;;18.80;99.90;;;;;;5024492;23;20416;-76
2023/08/03 02:21:07;;;;;;;5.20;1.20;;;18.70;99.90;;;;;;4977677;28;20411;-78
2023/08/03 02:23:33;;;;;;;3.47;1.10;;;18.70;99.90;;;;;;4975343;28;20384;-78
2023/08/03 02:26:02;;;;;;;5.40;1.75;;;18.70;99.90;;;;;;4975434;28;20416;-77
2023/08/03 02:28:28;;;;;;;7.55;1.85;;;18.10;99.90;;;;;;4959432;28;20396;-78
2023/08/03 02:30:53;;;;;;;4.78;1.60;;;18.60;99.90;;;;;;4975211;28;20427;-78
2023/08/03 02:33:19;;;;;;;7.32;1.80;;;18.40;99.90;;;;;;4966938;28;20405;-77
2023/08/03 02:35:44;;;;;;;6.37;1.67;;;18.60;99.90;;;;;;4956179;29;20474;-77
2023/08/03 02:38:10;;;;;;;3.60;1.40;;;18.40;99.90;;;;;;4958047;29;20815;-79
2023/08/03 02:40:36;;;;;;;6.30;1.30;;;18.40;99.90;;;;;;4958094;29;20397;-77
2023/08/03 02:43:01;;;;;;;5.20;1.40;;;18.40;99.90;;;;;;4964374;28;20491;-78
2023/08/03 02:45:27;;;;;;;4.75;1.60;;;17.90;99.90;;;;;;4971123;28;20429;-79
2023/08/03 02:47:52;;;;;;;4.80;1.30;;;18.20;99.90;;;;;;4957964;29;20746;-78
2023/08/03 02:50:18;;;;;;;5.27;1.40;;;18.20;99.90;;;;;;4957356;29;20464;-77
2023/08/03 02:52:43;;;;;;;5.35;1.50;;;17.80;99.90;;;;;;4957944;29;20405;-76
2023/08/03 02:55:09;;;;;;;4.40;1.40;;;18.00;99.90;;;;;;4956747;28;20425;-79
2023/08/03 02:57:34;;;;;;;6.82;1.40;;;18.00;99.90;;;;;;4957245;28;20433;-77
2023/08/03 03:00:00;;;;;;;3.00;1.10;;;17.60;99.90;;;;;;4958335;29;20407;-79
2023/08/03 03:02:25;;;;;;;6.03;1.60;;;17.90;99.90;;;;;;4939316;29;20529;-78
2023/08/03 03:04:51;;;;;;;6.38;1.55;;;17.80;99.90;;;;;;4956173;29;20401;-78
2023/08/03 03:07:16;;;;;;;6.75;1.98;;;17.70;99.90;;;;;;4964124;28;20775;-78
2023/08/03 03:09:42;;;;;;;4.17;1.80;;;17.70;99.90;;;;;;4977722;28;20903;-78
2023/08/03 03:12:08;;;;;;;4.28;1.60;;;17.70;99.90;;;;;;4972100;28;20426;-79
2023/08/03 03:14:36;;;;;;;6.88;2.10;;;17.70;99.90;;;;;;4957951;29;20422;-77
2023/08/03 03:17:02;;;;;;;7.05;1.80;;;17.20;99.90;;;;;;4947933;28;20400;-77
2023/08/03 03:19:28;;;;;;;6.57;2.20;;;17.60;99.90;;;;;;4977642;28;20396;-77
2023/08/03 03:21:54;;;;;;;5.63;1.50;;;17.70;99.90;;;;;;4959544;28;20734;-79
2023/08/03 03:24:19;;;;;;;6.00;1.70;;;17.10;99.90;;;;;;4977991;28;20392;-78
2023/08/03 03:26:45;;;;;;;6.32;1.80;;;17.50;99.90;;;;;;4971484;28;20400;-78
2023/08/03 03:29:11;;;;;;;8.05;1.77;;;17.30;99.90;;;;;;4939765;29;20393;-79
2023/08/03 03:31:36;;;;;;;6.20;1.40;;;17.60;99.90;;;;;;4956975;29;20409;-78
2023/08/03 03:34:02;;;;;;;4.67;1.40;;;17.60;99.90;;;;;;4957592;29;20969;-78
2023/08/03 03:36:27;;;;;;;6.70;1.90;;;18.00;99.90;;;;;;4943135;28;20487;-78
2023/08/03 03:38:53;;;;;;;5.63;1.40;;;17.60;99.90;;;;;;4976340;28;20385;-78
2023/08/03 03:41:18;;;;;;;8.10;1.60;;;17.30;99.90;;;;;;4959047;28;20392;-79
2023/08/03 03:43:44;;;;;;;3.88;1.40;;;17.50;99.90;;;;;;4978282;28;20399;-78
2023/08/03 03:46:09;;;;;;;4.30;1.00;;;17.90;99.90;;;;;;4973823;28;20438;-78
2023/08/03 03:48:35;;;;;;;5.05;1.23;;;17.90;99.90;;;;;;4957653;29;20905;-77
2023/08/03 03:51:00;;;;;;;4.60;1.10;;;17.40;99.90;;;;;;4957531;29;20398;-78
2023/08/03 03:53:26;;;;;;;4.00;1.50;;;18.10;99.90;;;;;;4952403;28;20408;-79
2023/08/03 03:55:51;;;;;;;4.20;1.30;;;18.00;99.90;;;;;;4976469;28;20399;-79
2023/08/03 03:58:17;;;;;;;6.47;1.60;;;18.10;99.90;;;;;;4977978;28;20529;-80
2023/08/03 04:00:43;;;;;;;3.05;1.10;;;18.10;99.90;;;;;;4965887;28;20419;-77
2023/08/03 04:03:09;;;;;;;3.30;1.20;;;18.10;99.90;;;;;;4972958;28;20398;-76
2023/08/03 04:05:36;;;;;;;5.10;1.20;;;18.10;99.90;;;;;;4963990;29;20398;-77
2023/08/03 04:08:02;;;;;;;4.90;1.35;;;18.00;99.90;;;;;;4962409;29;20430;-78
2023/08/03 04:10:28;;;;;;;3.83;0.90;;;18.10;99.90;;;;;;4940936;29;20394;-79
2023/08/03 04:12:53;;;;;;;4.57;1.50;;;18.20;99.90;;;;;;4949897;28;20908;-77
2023/08/03 04:15:19;;;;;;;3.72;1.00;;;18.10;99.90;;;;;;4976627;28;20443;-77
2023/08/03 04:17:51;;;;;;;4.70;1.80;;;18.10;99.90;;;;;;4978294;28;20392;-78
2023/08/03 04:20:17;;;;;;;4.53;1.30;;;18.20;99.90;;;;;;4977724;28;20396;-78
2023/08/03 04:22:43;;;;;;;3.88;0.98;;;18.20;99.90;;;;;;4971204;28;20469;-78
2023/08/03 04:25:09;;;;;;;4.57;1.20;;;17.60;99.90;;;;;;4961174;28;20452;-78
2023/08/03 04:27:34;;;;;;;6.30;1.20;;;18.20;99.90;;;;;;4960713;29;20476;-77
2023/08/03 04:30:00;;;;;;;3.73;1.20;;;18.10;99.90;;;;;;4965964;28;20488;-77
2023/08/03 04:32:26;;;;;;;3.37;1.10;;;18.10;99.90;;;;;;4966821;28;20412;-78
2023/08/03 04:34:51;;;;;;;3.42;1.23;;;18.10;99.90;;;;;;4983412;28;20408;-78
2023/08/03 04:37:17;;;;;;;5.20;1.40;;;18.40;99.90;;;;;;4982806;28;20391;-77
2023/08/03 04:39:42;;;;;;;5.37;1.77;;;17.90;99.90;;;;;;4979464;28;20895;-77
2023/08/03 04:42:08;;;;;;;7.22;1.85;;;18.50;99.90;;;;;;4959830;28;20817;-78
2023/08/03 04:44:34;;;;;;;2.93;1.20;;;17.90;99.90;;;;;;4961143;29;20969;-78
2023/08/03 04:46:59;;;;;;;3.87;1.20;;;17.80;99.90;;;;;;4960295;29;20401;-78
2023/08/03 04:49:28;;;;;;;4.35;1.60;;;17.70;99.90;;;;;;4944423;28;20541;-78
2023/08/03 04:51:53;;;;;;;2.42;1.08;;;17.70;99.90;;;;;;4940699;29;20406;-78
2023/08/03 04:54:20;;;;;;;2.97;1.00;;;17.40;99.90;;;;;;4940799;29;20419;-78
2023/08/03 04:56:46;;;;;;;4.65;1.30;;;17.60;99.90;;;;;;4941609;29;20415;-78
2023/08/03 04:59:11;;;;;;;2.33;1.13;;;17.70;99.90;;;;;;4942082;29;20474;-77
2023/08/03 05:01:37;;;;;;;3.65;1.38;;;17.60;99.90;;;;;;4976068;28;20455;-79
2023/08/03 05:04:03;;;;;;;5.50;1.00;;;17.70;99.90;;;;;;4964767;28;20425;-78
2023/08/03 05:06:28;;;;;;;4.70;1.45;;;17.70;99.90;;;;;;4963209;29;20385;-78
2023/08/03 05:08:54;;;;;;;3.72;0.90;;;17.70;99.90;;;;;;4963147;29;20810;-79
2023/08/03 05:11:20;;;;;;;3.10;0.90;;;17.70;99.90;;;;;;4961358;29;20401;-77
2023/08/03 05:13:45;;;;;;;3.20;1.10;;;17.70;99.90;;;;;;4951096;28;20936;-78
2023/08/03 05:16:11;;;;;;;4.90;1.40;;;17.70;99.90;;;;;;4980023;28;20459;-78
2023/08/03 05:18:36;;;;;;;3.97;1.42;;;17.00;99.90;;;;;;4962671;28;20411;-79
2023/08/03 05:21:02;;;;;;;6.23;1.20;;;17.70;99.90;;;;;;4964589;28;20388;-78
2023/08/03 05:23:28;;;;;;;3.57;1.07;;;17.70;99.90;;;;;;4978720;28;20471;-77
2023/08/03 05:25:57;;;;;;;3.35;1.25;;;17.80;99.90;;;;;;4947481;28;20435;-78
2023/08/03 05:28:24;;;;;;;2.50;1.02;;;17.80;99.90;;;;;;4943424;29;20386;-78
2023/08/03 05:30:50;;;;;;;4.50;1.20;;;17.80;99.90;;;;;;4944886;29;20454;-79
2023/08/03 05:33:16;;;;;;;3.30;0.90;;;17.80;99.90;;;;;;4960070;28;20433;-78
2023/08/03 05:35:42;;;;;;;3.00;1.10;;;18.80;99.90;;;;;;4964632;28;20506;-79
2023/08/03 05:38:07;;;;;;;1.95;0.70;;;17.90;99.90;;;;;;4954305;29;20771;-78
2023/08/03 05:40:33;;;;;;;1.50;0.70;;;18.00;99.90;;;;;;4941496;29;20479;-79
2023/08/03 05:42:59;;;;;;;3.10;0.80;;;18.00;99.90;;;;;;4940937;29;20455;-79
2023/08/03 05:45:39;;;;;;;2.57;1.00;;;18.10;99.90;;;;;;4923977;29;20392;-78
2023/08/03 05:48:14;;;;;;;1.83;0.80;;;18.10;99.90;;;;;;4927853;28;20410;-77
2023/08/03 05:50:43;;;;;;;2.72;0.63;;;18.10;99.90;;;;;;4950148;29;20461;-78
2023/08/03 05:53:10;;;;;;;3.13;1.00;;;18.10;99.90;;;;;;4958594;29;20461;-79
2023/08/03 05:55:36;;;;;;;3.47;0.80;;;18.10;99.90;;;;;;4942564;29;20594;-77
2023/08/03 05:58:02;;;;;;;2.67;0.85;;;18.00;99.90;;;;;;4943359;29;20386;-78
2023/08/03 06:00:28;;;;;;;2.70;0.87;;;18.00;99.90;;;;;;4948684;28;20400;-78
2023/08/03 06:02:57;;;;;;;5.70;1.20;;;18.00;99.90;;;;;;4977934;28;20423;-79
2023/08/03 06:05:38;;;;;;;3.33;0.98;;;18.00;99.90;;;;;;4950478;28;20464;-79
2023/08/03 06:08:10;;;;;;;2.00;0.77;;;18.00;99.90;;;;;;4961239;28;20392;-77
2023/08/03 06:10:35;;;;;;;2.37;0.80;;;18.10;99.90;;;;;;4977953;28;20384;-78
2023/08/03 06:13:02;;;;;;;3.27;0.90;;;18.40;99.90;;;;;;4977675;28;20915;-77
2023/08/03 06:15:28;;;;;;;2.47;0.90;;;17.60;99.90;;;;;;4975841;28;20412;-78
2023/08/03 06:18:04;;;;;;;2.67;0.98;;;18.10;99.90;;;;;;4978164;28;20415;-78
2023/08/03 06:20:30;;;;;;;2.80;0.70;;;18.10;99.90;;;;;;4960198;28;20490;-78
2023/08/03 06:22:55;;;;;;;2.37;1.00;;;18.00;99.90;;;;;;4976494;28;20388;-78
2023/08/03 06:25:22;;;;;;;2.05;0.90;;;18.00;99.90;;;;;;4949648;29;20411;-77
2023/08/03 06:27:48;;;;;;;3.05;1.10;;;18.00;99.90;;;;;;4971075;28;20828;-78
2023/08/03 06:30:14;;;;;;;1.92;0.75;;;18.00;99.90;;;;;;4976674;28;20411;-78
2023/08/03 06:32:40;;;;;;;3.95;1.10;;;18.00;99.90;;;;;;4977003;28;20787;-78
2023/08/03 06:35:28;;;;;;;4.60;1.20;;;18.10;99.90;;;;;;4959782;28;20408;-78
2023/08/03 06:37:53;;;;;;;3.08;0.98;;;18.10;99.90;;;;;;4959569;28;20468;-77
2023/08/03 06:40:19;;;;;;;4.83;1.10;;;18.10;99.90;;;;;;4957653;29;20385;-79
2023/08/03 06:42:45;;;;;;;3.75;1.05;;;18.00;99.90;;;;;;4939245;28;20390;-78
2023/08/03 06:45:11;;;;;;;4.50;1.00;;;18.30;99.90;;;;;;4974798;28;20411;-78
2023/08/03 06:47:36;;;;;;;1.75;0.80;;;18.10;99.90;;;;;;4975261;28;20392;-78
2023/08/03 06:50:03;;;;;;;1.75;1.00;;;18.10;99.90;;;;;;4974725;28;20810;-78
2023/08/03 06:52:29;;;;;;;2.45;0.73;;;18.10;99.90;;;;;;4975589;28;20396;-78
2023/08/03 06:54:55;;;;;;;3.22;0.90;;;18.20;99.90;;;;;;4959027;28;20428;-78
2023/08/03 06:57:20;;;;;;;2.63;1.00;;;17.70;99.90;;;;;;4956979;29;20390;-78
2023/08/03 06:59:46;;;;;;;2.42;0.80;;;18.30;99.90;;;;;;4956649;28;20422;-77
2023/08/03 07:02:11;;;;;;;3.20;0.90;;;18.20;99.90;;;;;;4976176;28;20441;-79
2023/08/03 07:04:37;;;;;;;2.05;1.20;;;18.20;99.90;;;;;;4945891;29;20467;-79
2023/08/03 07:07:02;;;;;;;3.57;1.03;;;18.20;99.90;;;;;;4940165;29;20902;-79
2023/08/03 07:09:28;;;;;;;3.30;1.00;;;18.20;99.90;;;;;;4939435;29;20562;-79
2023/08/03 07:11:53;;;;;;;4.90;1.05;;;18.10;99.90;;;;;;4954432;28;20412;-78
2023/08/03 07:14:19;;;;;;;2.33;0.87;;;18.20;99.90;;;;;;4957373;28;20412;-78
2023/08/03 07:16:44;;;;;;;3.22;0.80;;;18.30;99.90;;;;;;4972953;28;20803;-79
2023/08/03 07:19:12;;;;;;;2.33;0.80;;;18.50;99.90;;;;;;4940478;29;20401;-77
2023/08/03 07:21:38;;;;;;;2.70;0.80;;;18.40;99.90;;;;;;4939925;29;20397;-78
2023/08/03 07:24:04;;;;;;;2.30;1.10;;;18.50;99.90;;;;;;4939531;29;20390;-80
2023/08/03 07:26:29;;;;;;;2.15;0.90;;;18.50;99.90;;;;;;4940615;28;20432;-78
2023/08/03 07:28:55;;;;;;;1.60;0.90;;;18.70;99.90;;;;;;4958625;28;20396;-78
2023/08/03 07:31:21;;;;;;;2.45;0.80;;;18.50;99.90;;;;;;4973667;28;20479;-79
2023/08/03 07:33:46;;;;;;;2.23;0.80;;;18.40;99.90;;;;;;4936179;29;20426;-77
2023/08/03 07:36:17;;;;;;;1.45;0.70;;;18.70;99.90;;;;;;4936104;29;20523;-78
2023/08/03 07:38:42;;;;;;;2.75;1.00;;;18.90;99.90;;;;;;4935324;29;20403;-78
2023/08/03 07:41:08;;;;;;;4.90;1.00;;;18.90;99.90;;;;;;4937267;29;20388;-80
2023/08/03 07:43:34;;;;;;;1.60;0.60;;;19.00;99.90;;;;;;4935162;29;20391;-79
2023/08/03 07:46:02;;;;;;;2.60;1.10;;;19.00;99.90;;;;;;4919437;29;20915;-77
2023/08/03 07:48:27;;;;;;;3.00;0.90;;;20.20;99.90;;;;;;4969109;28;20404;-78
2023/08/03 07:50:53;;;;;;;3.60;0.80;;;19.10;99.90;;;;;;4958842;28;20942;-78
2023/08/03 07:53:18;;;;;;;2.23;0.80;;;19.80;99.90;;;;;;4976579;28;20392;-78
2023/08/03 07:55:44;;;;;;;1.20;0.50;;;18.30;99.90;;;;;;4957393;28;20470;-78
2023/08/03 07:58:11;;;;;;;3.90;0.80;;;19.40;99.90;;;;;;4962299;28;20406;-78
2023/08/03 08:00:37;;;;;;;3.58;0.90;;;18.80;99.90;;;;;;4939308;29;20823;-79
2023/08/03 08:03:02;;;;;;;3.60;1.10;;;19.00;99.90;;;;;;4956589;29;20389;-78
2023/08/03 08:05:28;;;;;;;2.72;0.70;;;19.10;99.90;;;;;;4970501;28;20408;-78
2023/08/03 08:07:54;;;;;;;2.10;1.10;;;19.20;99.90;;;;;;4958602;28;20908;-79
2023/08/03 08:10:19;;;;;;;2.75;1.10;;;19.10;99.90;;;;;;4975942;28;20394;-78
2023/08/03 08:12:45;;;;;;;2.90;0.70;;;19.00;99.90;;;;;;4977150;28;20475;-78
2023/08/03 08:15:11;;;;;;;3.33;0.80;;;19.10;99.90;;;;;;4943661;29;20416;-79
2023/08/03 08:17:36;;;;;;;4.60;0.93;;;19.10;99.90;;;;;;4927406;29;20469;-78
2023/08/03 08:20:02;;;;;;;3.93;0.70;;;19.10;99.90;;;;;;4996715;23;20439;-76
2023/08/03 08:22:27;;;;;;;1.40;0.60;;;19.20;99.90;;;;;;4990380;28;20390;-76
2023/08/03 08:24:53;;;;;;;2.40;0.90;;;19.20;99.90;;;;;;4991081;28;20387;-77
2023/08/03 08:27:19;;;;;;;2.10;0.90;;;19.30;99.90;;;;;;4991006;28;20918;-77
2023/08/03 08:29:45;;;;;;;1.55;0.88;;;19.40;99.90;;;;;;4991334;28;20378;-77
2023/08/03 08:32:11;;;;;;;2.30;0.85;;;19.10;99.90;;;;;;4972073;28;20551;-77
2023/08/03 08:34:37;;;;;;;1.63;0.70;;;19.10;99.90;;;;;;4955966;28;20523;-77
2023/08/03 08:37:02;;;;;;;2.00;0.80;;;19.00;99.90;;;;;;4957806;28;20468;-77
2023/08/03 08:39:29;;;;;;;1.50;0.80;;;19.00;99.90;;;;;;4974764;28;20399;-77
2023/08/03 08:41:55;;;;;;;2.40;0.80;;;19.10;99.90;;;;;;4971208;28;20485;-77
2023/08/03 08:44:21;;;;;;;2.83;0.90;;;18.60;99.90;;;;;;4963091;28;20407;-77
2023/08/03 08:46:46;;;;;;;1.92;0.60;;;19.10;99.90;;;;;;4980541;28;20392;-76
2023/08/03 08:49:13;;;;;;;4.28;0.90;;;19.10;99.90;;;;;;4979266;28;20456;-76
2023/08/03 08:51:41;;;;;;;3.15;0.90;;;19.20;99.90;;;;;;4980262;28;20392;-77
2023/08/03 08:54:08;;;;;;;2.40;1.00;;;19.00;99.90;;;;;;4983863;28;20449;-77
2023/08/03 08:56:33;;;;;;;4.30;0.80;;;19.30;99.90;;;;;;4991472;28;20437;-77
2023/08/03 08:58:59;;;;;;;2.37;0.70;;;19.50;99.90;;;;;;4993007;28;20386;-77
2023/08/03 09:01:24;;;;;;;2.10;0.80;;;19.40;99.90;;;;;;4991760;28;20398;-76
2023/08/03 09:03:52;;;;;;;3.20;0.87;;;19.00;99.90;;;;;;4977264;28;20424;-77
2023/08/03 09:06:21;;;;;;;2.50;0.80;;;19.50;99.90;;;;;;4972342;28;20396;-76
2023/08/03 09:08:55;;;;;;;1.63;0.80;;;19.60;99.90;;;;;;4974611;28;20399;-76
2023/08/03 09:11:37;;;;;;;3.70;1.05;;;19.70;99.90;;;;;;4976437;28;20396;-77
2023/08/03 09:14:05;;;;;;;2.08;0.80;;;19.80;99.90;;;;;;4972736;28;20782;-77
2023/08/03 09:16:31;;;;;;;1.80;0.60;;;19.60;99.90;;;;;;4995278;28;20597;-77
2023/08/03 09:18:57;;;;;;;2.60;0.80;;;19.80;99.90;;;;;;4992417;28;20941;-76
2023/08/03 09:21:22;;;;;;;2.20;0.70;;;19.80;99.90;;;;;;4994574;28;20403;-77
2023/08/03 09:23:48;;;;;;;2.80;0.70;;;20.00;99.90;;;;;;4976994;28;20921;-76
2023/08/03 09:26:19;;;;;;;2.00;0.70;;;20.40;99.90;;;;;;4976888;28;20946;-76
2023/08/03 09:28:45;;;;;;;2.40;0.70;;;19.80;99.90;;;;;;4986541;28;20805;-76
2023/08/03 09:31:19;;;;;;;1.70;0.80;;;19.60;99.90;;;;;;4985667;28;20427;-76
2023/08/03 09:34:00;;;;;;;2.40;0.70;;;19.70;99.90;;;;;;4976145;28;20419;-77
2023/08/03 09:36:29;;;;;;;4.50;1.20;;;19.80;99.90;;;;;;4978560;28;20471;-77
2023/08/03 09:39:10;;;;;;;2.67;0.82;;;19.70;99.90;;;;;;4977362;28;20384;-77
2023/08/03 09:41:37;;;;;;;1.83;0.80;;;19.80;99.90;;;;;;4989834;28;20407;-76
2023/08/03 09:44:06;;;;;;;1.80;1.00;;;19.90;99.90;;;;;;4979208;28;20915;-77
2023/08/03 09:46:32;;;;;;;2.40;0.70;;;20.00;99.90;;;;;;4976164;28;20796;-76
2023/08/03 09:48:57;;;;;;;3.17;0.90;;;20.20;99.90;;;;;;4974479;28;20392;-76
2023/08/03 09:51:28;;;;;;;2.80;0.90;;;20.30;99.90;;;;;;4974167;28;20388;-76
2023/08/03 09:53:59;;;;;;;1.60;0.60;;;20.30;99.90;;;;;;4967603;28;20418;-76
2023/08/03 09:56:31;;;;;;;1.55;0.90;;;20.40;99.90;;;;;;4965612;28;20451;-76
2023/08/03 09:59:03;;;;;;;2.47;0.70;;;19.80;99.90;;;;;;4975445;28;20479;-76
2023/08/03 10:01:31;;;;;;;2.42;0.80;;;20.40;99.90;;;;;;4957172;28;20392;-77
2023/08/03 10:04:01;;;;;;;2.30;0.73;;;20.30;99.90;;;;;;4974791;28;20491;-76
2023/08/03 10:06:33;;;;;;;3.17;0.80;;;20.20;99.90;;;;;;4984511;28;20497;-76
2023/08/03 10:09:12;;;;;;;3.47;0.80;;;20.30;99.90;;;;;;4994241;28;20461;-76
2023/08/03 10:11:49;;;;;;;2.00;0.60;;;19.90;99.90;;;;;;4967372;28;20415;-76
2023/08/03 10:14:27;;;;;;;2.20;0.77;;;20.40;99.90;;;;;;4974345;28;20923;-76
2023/08/03 10:16:53;;;;;;;4.57;0.90;;;20.50;99.90;;;;;;4974140;28;20385;-76
2023/08/03 10:19:19;;;;;;;2.22;0.80;;;19.90;99.90;;;;;;4973331;28;21102;-76
2023/08/03 10:21:45;;;;;;;3.50;0.90;;;20.60;99.90;;;;;;4992545;28;20493;-76
2023/08/03 10:24:18;;;;;;;1.90;0.70;;;20.70;99.90;;;;;;4993618;28;20399;-76
2023/08/03 10:26:48;;;;;;;2.30;1.00;;;21.00;99.90;;;;;;4993317;28;20417;-76
2023/08/03 10:29:14;;;;;;;3.10;0.70;;;20.80;99.90;;;;;;4993709;28;20466;-76
2023/08/03 10:31:53;;;;;;;3.17;0.85;;;20.90;99.90;;;;;;4974374;28;20408;-77
2023/08/03 10:34:27;;;;;;;1.40;0.70;;;21.10;99.90;;;;;;4974559;28;20420;-77
2023/08/03 10:36:55;;;;;;;2.05;0.60;;;21.00;99.90;;;;;;4957005;28;20750;-77
2023/08/03 10:39:47;;;;;;;2.95;0.90;;;21.30;99.90;;;;;;4973574;28;20760;-77
2023/08/03 10:42:23;;;;;;;2.38;0.80;;;21.40;99.90;;;;;;4956533;28;20428;-76
2023/08/03 10:44:49;;;;;;;2.00;0.50;;;20.80;99.90;;;;;;4973447;28;20419;-76
2023/08/03 10:47:26;;;;;;;1.63;0.60;;;20.90;99.90;;;;;;4956109;28;20420;-77
2023/08/03 10:49:53;;;;;;;3.30;0.70;;;20.90;99.90;;;;;;4973295;28;20384;-76
2023/08/03 10:52:30;;;;;;;1.30;0.60;;;20.70;99.90;;;;;;4989069;28;20405;-77
2023/08/03 10:55:18;;;;;;;1.75;0.60;;;20.70;99.90;;;;;;4992905;28;20481;-77
2023/08/03 10:57:43;;;;;;;1.88;0.63;;;21.00;99.90;;;;;;4992731;28;20397;-77
2023/08/03 11:00:11;;;;;;;5.10;0.90;;;21.40;99.90;;;;;;4991710;28;20394;-76
2023/08/03 11:02:37;;;;;;;2.15;0.50;;;21.60;99.90;;;;;;4975311;28;20404;-76
2023/08/03 11:05:04;;;;;;;4.10;0.90;;;21.70;99.90;;;;;;4973114;28;20761;-77
2023/08/03 11:07:37;;;;;;;1.20;0.60;;;21.60;99.90;;;;;;4972879;28;20439;-77
2023/08/03 11:10:11;;;;;;;1.60;0.80;;;21.30;99.90;;;;;;4973038;28;20411;-77
2023/08/03 11:12:39;;;;;;;1.50;0.60;;;21.30;99.90;;;;;;4976082;28;20402;-76
2023/08/03 11:15:06;;;;;;;1.55;0.60;;;21.20;99.90;;;;;;4992748;28;20410;-76
2023/08/03 11:17:33;;;;;;;2.60;0.70;;;21.40;99.90;;;;;;4990547;28;20418;-76
2023/08/03 11:20:00;;;;;;;1.05;0.50;;;21.00;99.90;;;;;;4975896;28;20495;-76
2023/08/03 11:22:27;;;;;;;1.02;0.57;;;20.40;99.90;;;;;;4972904;28;20904;-76
2023/08/03 11:24:57;;;;;;;2.70;1.10;;;21.30;99.90;;;;;;4955797;28;20401;-76
2023/08/03 11:27:23;;;;;;;1.70;0.60;;;21.00;99.90;;;;;;4972810;28;20396;-77
2023/08/03 11:29:50;;;;;;;2.33;0.73;;;21.10;99.90;;;;;;4973959;28;20478;-76
2023/08/03 11:32:27;;;;;;;2.40;0.65;;;21.20;99.90;;;;;;4971452;28;20388;-77
2023/08/03 11:35:07;;;;;;;1.30;0.70;;;21.10;99.90;;;;;;4980271;28;20406;-77
2023/08/03 11:37:35;;;;;;;1.63;0.70;;;21.40;99.90;;;;;;4992024;28;20409;-77
2023/08/03 11:40:04;;;;;;;1.00;0.55;;;21.60;99.90;;;;;;4992234;28;20806;-76
2023/08/03 11:42:30;;;;;;;2.22;0.70;;;21.70;99.90;;;;;;4991523;28;20394;-77
2023/08/03 11:44:55;;;;;;;1.73;0.70;;;22.50;99.90;;;;;;4984007;28;20404;-77
2023/08/03 11:47:21;;;;;;;1.17;0.60;;;22.90;99.90;;;;;;4980048;28;20834;-76
2023/08/03 11:49:48;;;;;;;1.30;0.70;;;22.80;99.90;;;;;;4991506;28;20907;-77
2023/08/03 11:52:20;;;;;;;1.95;0.70;;;22.10;99.90;;;;;;4991361;28;20886;-77
2023/08/03 11:54:46;;;;;;;1.40;0.68;;;21.80;99.90;;;;;;4991462;28;20417;-77
2023/08/03 11:59:55;;;;;;;1.75;0.60;;;22.80;99.90;;;;;;4972299;28;20399;-77
2023/08/03 12:02:43;;;;;;;1.30;0.88;;;23.30;99.90;;;;;;4971781;28;20374;-77
2023/08/03 12:05:09;;;;;;;3.50;0.80;;;23.80;99.90;;;;;;4972442;28;20388;-77
2023/08/03 12:07:35;;;;;;;2.50;0.80;;;23.40;99.90;;;;;;4981220;28;20510;-77
2023/08/03 12:10:08;;;;;;;2.73;0.83;;;23.40;99.90;;;;;;4992210;28;20469;-77
2023/08/03 12:12:33;;;;;;;3.10;0.80;;;23.40;99.90;;;;;;4986716;28;20813;-77
2023/08/03 12:14:59;;;;;;;1.30;0.52;;;22.80;99.90;;;;;;4986649;28;20529;-76
2023/08/03 12:17:24;;;;;;;1.73;0.40;;;22.40;99.90;;;;;;4991335;28;20794;-75
2023/08/03 12:19:50;;;;;;;1.58;0.60;;;22.20;99.90;;;;;;4984290;28;20431;-77
2023/08/03 12:22:15;;;;;;;1.00;0.70;;;23.40;99.90;;;;;;4971803;28;20384;-78
2023/08/03 12:24:41;;;;;;;1.45;0.50;;;23.80;99.90;;;;;;4971977;28;20439;-76
2023/08/03 12:27:06;;;;;;;1.00;0.60;;;24.00;99.90;;;;;;4954254;28;20402;-76
2023/08/03 12:29:32;;;;;;;2.08;0.70;;;23.60;99.90;;;;;;4974587;28;20417;-76
2023/08/03 12:31:58;;;;;;;1.20;0.50;;;24.00;99.90;;;;;;4974157;28;20403;-76
2023/08/03 12:34:23;;;;;;;1.50;0.50;;;23.40;99.90;;;;;;4971797;28;20837;-77
2023/08/03 12:36:49;;;;;;;1.70;0.60;;;23.90;99.90;;;;;;4954687;28;20412;-77
2023/08/03 12:39:17;;;;;;;1.20;0.60;;;23.10;99.90;;;;;;4955048;28;20495;-77
2023/08/03 12:41:43;;;;;;;1.70;0.40;;;22.60;99.90;;;;;;4968458;28;20413;-76
2023/08/03 12:44:09;;;;;;;1.30;0.50;;;22.90;99.90;;;;;;4978916;28;20400;-77
2023/08/03 12:46:34;;;;;;;2.27;0.60;;;22.90;99.90;;;;;;4991441;28;20892;-77
2023/08/03 12:49:00;;;;;;;1.90;0.50;;;22.50;99.90;;;;;;4979081;28;20806;-76